sensor_id;sensor_type;location;lat;lon;timestamp;P1;durP1;ratioP1;P2;durP2;ratioP2
12429;SDS011;6279;42.192;24.326;2024-01-30T00:01:13;7.67;;;5.40;;
12429;SDS011;6279;42.192;24.326;2024-01-30T00:03:38;9.63;;;5.33;;
12429;SDS011;6279;42.192;24.326;2024-01-30T00:06:04;11.37;;;6.53;;
12429;SDS011;6279;42.192;24.326;2024-01-30T00:08:29;10.30;;;6.13;;
12429;SDS011;6279;42.192;24.326;2024-01-30T00:10:55;10.17;;;6.60;;
12429;SDS011;6279;42.192;24.326;2024-01-30T00:13:20;10.30;;;6.20;;
12429;SDS011;6279;42.192;24.326;2024-01-30T00:15:45;8.77;;;5.60;;
12429;SDS011;6279;42.192;24.326;2024-01-30T00:18:11;8.77;;;5.80;;
12429;SDS011;6279;42.192;24.326;2024-01-30T00:20:36;8.70;;;5.50;;
12429;SDS011;6279;42.192;24.326;2024-01-30T00:23:02;7.40;;;5.07;;
12429;SDS011;6279;42.192;24.326;2024-01-30T00:25:27;7.43;;;5.23;;
12429;SDS011;6279;42.192;24.326;2024-01-30T00:27:53;7.33;;;5.30;;
12429;SDS011;6279;42.192;24.326;2024-01-30T00:30:19;7.70;;;4.73;;
12429;SDS011;6279;42.192;24.326;2024-01-30T00:32:45;8.47;;;5.33;;
12429;SDS011;6279;42.192;24.326;2024-01-30T00:35:10;8.50;;;5.73;;
12429;SDS011;6279;42.192;24.326;2024-01-30T00:37:36;63.00;;;24.63;;
12429;SDS011;6279;42.192;24.326;2024-01-30T00:40:01;87.10;;;31.07;;
12429;SDS011;6279;42.192;24.326;2024-01-30T00:42:27;108.43;;;36.90;;
12429;SDS011;6279;42.192;24.326;2024-01-30T00:44:52;112.20;;;38.33;;
12429;SDS011;6279;42.192;24.326;2024-01-30T00:47:18;60.20;;;21.90;;
12429;SDS011;6279;42.192;24.326;2024-01-30T00:49:43;21.47;;;9.80;;
12429;SDS011;6279;42.192;24.326;2024-01-30T00:52:08;13.47;;;7.70;;
12429;SDS011;6279;42.192;24.326;2024-01-30T00:54:34;13.57;;;6.80;;
12429;SDS011;6279;42.192;24.326;2024-01-30T00:56:59;14.23;;;7.50;;
12429;SDS011;6279;42.192;24.326;2024-01-30T00:59:24;11.47;;;7.13;;
12429;SDS011;6279;42.192;24.326;2024-01-30T01:01:50;15.53;;;7.37;;
12429;SDS011;6279;42.192;24.326;2024-01-30T01:04:15;18.10;;;7.13;;
12429;SDS011;6279;42.192;24.326;2024-01-30T01:06:42;12.73;;;7.07;;
12429;SDS011;6279;42.192;24.326;2024-01-30T01:09:10;15.57;;;6.97;;
12429;SDS011;6279;42.192;24.326;2024-01-30T01:11:36;9.50;;;5.73;;
12429;SDS011;6279;42.192;24.326;2024-01-30T01:14:03;9.33;;;5.90;;
12429;SDS011;6279;42.192;24.326;2024-01-30T01:16:29;12.60;;;6.90;;
12429;SDS011;6279;42.192;24.326;2024-01-30T01:18:54;14.77;;;6.97;;
12429;SDS011;6279;42.192;24.326;2024-01-30T01:21:20;17.87;;;7.70;;
12429;SDS011;6279;42.192;24.326;2024-01-30T01:23:45;16.87;;;8.60;;
12429;SDS011;6279;42.192;24.326;2024-01-30T01:26:10;17.97;;;8.43;;
12429;SDS011;6279;42.192;24.326;2024-01-30T01:28:36;15.50;;;8.53;;
12429;SDS011;6279;42.192;24.326;2024-01-30T01:31:01;17.60;;;8.10;;
12429;SDS011;6279;42.192;24.326;2024-01-30T01:33:31;21.07;;;9.07;;
12429;SDS011;6279;42.192;24.326;2024-01-30T01:35:58;22.67;;;10.27;;
12429;SDS011;6279;42.192;24.326;2024-01-30T01:38:23;18.50;;;9.30;;
12429;SDS011;6279;42.192;24.326;2024-01-30T01:40:49;14.30;;;7.87;;
12429;SDS011;6279;42.192;24.326;2024-01-30T01:43:14;16.87;;;8.50;;
12429;SDS011;6279;42.192;24.326;2024-01-30T01:45:39;13.93;;;8.00;;
12429;SDS011;6279;42.192;24.326;2024-01-30T01:48:05;17.00;;;8.33;;
12429;SDS011;6279;42.192;24.326;2024-01-30T01:50:31;16.37;;;8.03;;
12429;SDS011;6279;42.192;24.326;2024-01-30T01:52:57;9.33;;;6.17;;
12429;SDS011;6279;42.192;24.326;2024-01-30T01:55:23;10.20;;;6.20;;
12429;SDS011;6279;42.192;24.326;2024-01-30T01:57:52;10.20;;;5.83;;
12429;SDS011;6279;42.192;24.326;2024-01-30T02:00:18;8.80;;;5.23;;
12429;SDS011;6279;42.192;24.326;2024-01-30T02:02:45;7.27;;;5.50;;
12429;SDS011;6279;42.192;24.326;2024-01-30T02:05:11;7.30;;;5.57;;
12429;SDS011;6279;42.192;24.326;2024-01-30T02:07:36;7.63;;;5.20;;
12429;SDS011;6279;42.192;24.326;2024-01-30T02:10:02;6.03;;;4.90;;
12429;SDS011;6279;42.192;24.326;2024-01-30T02:12:28;7.63;;;4.87;;
12429;SDS011;6279;42.192;24.326;2024-01-30T02:14:54;7.17;;;4.90;;
12429;SDS011;6279;42.192;24.326;2024-01-30T02:17:20;6.47;;;4.77;;
12429;SDS011;6279;42.192;24.326;2024-01-30T02:19:46;7.17;;;5.17;;
12429;SDS011;6279;42.192;24.326;2024-01-30T02:22:11;8.17;;;5.67;;
12429;SDS011;6279;42.192;24.326;2024-01-30T02:24:38;8.60;;;5.77;;
12429;SDS011;6279;42.192;24.326;2024-01-30T02:27:03;8.83;;;5.90;;
12429;SDS011;6279;42.192;24.326;2024-01-30T02:29:29;9.07;;;5.90;;
12429;SDS011;6279;42.192;24.326;2024-01-30T02:31:54;8.17;;;5.50;;
12429;SDS011;6279;42.192;24.326;2024-01-30T02:34:19;8.07;;;5.33;;
12429;SDS011;6279;42.192;24.326;2024-01-30T02:36:45;12.43;;;6.80;;
12429;SDS011;6279;42.192;24.326;2024-01-30T02:39:11;9.53;;;6.47;;
12429;SDS011;6279;42.192;24.326;2024-01-30T02:41:36;11.20;;;7.20;;
12429;SDS011;6279;42.192;24.326;2024-01-30T02:44:02;9.20;;;6.20;;
12429;SDS011;6279;42.192;24.326;2024-01-30T02:46:28;8.47;;;5.90;;
12429;SDS011;6279;42.192;24.326;2024-01-30T02:48:54;10.27;;;6.23;;
12429;SDS011;6279;42.192;24.326;2024-01-30T02:51:19;9.37;;;6.77;;
12429;SDS011;6279;42.192;24.326;2024-01-30T02:53:45;10.60;;;7.40;;
12429;SDS011;6279;42.192;24.326;2024-01-30T02:56:10;9.57;;;6.43;;
12429;SDS011;6279;42.192;24.326;2024-01-30T02:58:37;8.33;;;5.77;;
12429;SDS011;6279;42.192;24.326;2024-01-30T03:01:02;6.97;;;5.37;;
12429;SDS011;6279;42.192;24.326;2024-01-30T03:03:28;7.17;;;5.40;;
12429;SDS011;6279;42.192;24.326;2024-01-30T03:05:53;7.80;;;5.30;;
12429;SDS011;6279;42.192;24.326;2024-01-30T03:08:19;8.63;;;5.67;;
12429;SDS011;6279;42.192;24.326;2024-01-30T03:10:44;10.17;;;6.00;;
12429;SDS011;6279;42.192;24.326;2024-01-30T03:13:10;8.13;;;5.87;;
12429;SDS011;6279;42.192;24.326;2024-01-30T03:15:35;8.93;;;5.70;;
12429;SDS011;6279;42.192;24.326;2024-01-30T03:18:01;7.70;;;5.73;;
12429;SDS011;6279;42.192;24.326;2024-01-30T03:20:28;7.23;;;5.27;;
12429;SDS011;6279;42.192;24.326;2024-01-30T03:22:59;8.40;;;5.53;;
12429;SDS011;6279;42.192;24.326;2024-01-30T03:25:25;7.80;;;4.97;;
12429;SDS011;6279;42.192;24.326;2024-01-30T03:27:50;7.53;;;5.27;;
12429;SDS011;6279;42.192;24.326;2024-01-30T03:30:16;7.37;;;4.90;;
12429;SDS011;6279;42.192;24.326;2024-01-30T03:32:42;7.93;;;5.00;;
12429;SDS011;6279;42.192;24.326;2024-01-30T03:35:08;6.10;;;4.77;;
12429;SDS011;6279;42.192;24.326;2024-01-30T03:37:33;11.93;;;5.50;;
12429;SDS011;6279;42.192;24.326;2024-01-30T03:39:59;7.30;;;5.20;;
12429;SDS011;6279;42.192;24.326;2024-01-30T03:42:24;10.00;;;6.83;;
12429;SDS011;6279;42.192;24.326;2024-01-30T03:44:50;10.53;;;5.63;;
12429;SDS011;6279;42.192;24.326;2024-01-30T03:47:18;9.87;;;6.10;;
12429;SDS011;6279;42.192;24.326;2024-01-30T03:49:44;8.17;;;5.83;;
12429;SDS011;6279;42.192;24.326;2024-01-30T03:52:10;12.33;;;8.07;;
12429;SDS011;6279;42.192;24.326;2024-01-30T03:54:35;17.90;;;10.03;;
12429;SDS011;6279;42.192;24.326;2024-01-30T03:57:00;15.73;;;9.17;;
12429;SDS011;6279;42.192;24.326;2024-01-30T03:59:26;18.60;;;10.67;;
12429;SDS011;6279;42.192;24.326;2024-01-30T04:01:51;14.23;;;8.67;;
12429;SDS011;6279;42.192;24.326;2024-01-30T04:04:17;18.17;;;10.77;;
12429;SDS011;6279;42.192;24.326;2024-01-30T04:06:43;14.73;;;9.03;;
12429;SDS011;6279;42.192;24.326;2024-01-30T04:09:09;13.53;;;8.60;;
12429;SDS011;6279;42.192;24.326;2024-01-30T04:11:34;11.80;;;6.73;;
12429;SDS011;6279;42.192;24.326;2024-01-30T04:14:00;12.53;;;8.20;;
12429;SDS011;6279;42.192;24.326;2024-01-30T04:16:25;11.13;;;7.83;;
12429;SDS011;6279;42.192;24.326;2024-01-30T04:18:51;11.03;;;7.57;;
12429;SDS011;6279;42.192;24.326;2024-01-30T04:21:17;13.00;;;8.97;;
12429;SDS011;6279;42.192;24.326;2024-01-30T04:23:42;16.30;;;9.00;;
12429;SDS011;6279;42.192;24.326;2024-01-30T04:26:08;18.63;;;10.10;;
12429;SDS011;6279;42.192;24.326;2024-01-30T04:28:33;19.97;;;10.53;;
12429;SDS011;6279;42.192;24.326;2024-01-30T04:30:59;26.37;;;15.67;;
12429;SDS011;6279;42.192;24.326;2024-01-30T04:33:30;18.20;;;10.37;;
12429;SDS011;6279;42.192;24.326;2024-01-30T04:35:55;21.10;;;11.77;;
12429;SDS011;6279;42.192;24.326;2024-01-30T04:38:21;25.10;;;14.70;;
12429;SDS011;6279;42.192;24.326;2024-01-30T04:40:46;22.13;;;14.07;;
12429;SDS011;6279;42.192;24.326;2024-01-30T04:43:12;22.17;;;13.17;;
12429;SDS011;6279;42.192;24.326;2024-01-30T04:45:37;18.33;;;11.03;;
12429;SDS011;6279;42.192;24.326;2024-01-30T04:48:02;15.47;;;8.07;;
12429;SDS011;6279;42.192;24.326;2024-01-30T04:50:28;14.17;;;8.40;;
12429;SDS011;6279;42.192;24.326;2024-01-30T04:52:53;16.83;;;10.10;;
12429;SDS011;6279;42.192;24.326;2024-01-30T04:55:19;16.20;;;9.40;;
12429;SDS011;6279;42.192;24.326;2024-01-30T04:57:44;16.27;;;9.17;;
12429;SDS011;6279;42.192;24.326;2024-01-30T05:00:09;21.07;;;12.97;;
12429;SDS011;6279;42.192;24.326;2024-01-30T05:02:35;36.53;;;21.63;;
12429;SDS011;6279;42.192;24.326;2024-01-30T05:05:00;48.47;;;29.53;;
12429;SDS011;6279;42.192;24.326;2024-01-30T05:07:26;39.13;;;25.33;;
12429;SDS011;6279;42.192;24.326;2024-01-30T05:09:52;40.10;;;24.57;;
12429;SDS011;6279;42.192;24.326;2024-01-30T05:12:18;53.87;;;30.33;;
12429;SDS011;6279;42.192;24.326;2024-01-30T05:14:44;49.90;;;27.60;;
12429;SDS011;6279;42.192;24.326;2024-01-30T05:17:09;54.50;;;28.13;;
12429;SDS011;6279;42.192;24.326;2024-01-30T05:19:37;62.10;;;31.07;;
12429;SDS011;6279;42.192;24.326;2024-01-30T05:22:03;63.70;;;31.07;;
12429;SDS011;6279;42.192;24.326;2024-01-30T05:24:29;75.53;;;35.50;;
12429;SDS011;6279;42.192;24.326;2024-01-30T05:26:54;59.70;;;27.17;;
12429;SDS011;6279;42.192;24.326;2024-01-30T05:29:19;46.37;;;22.23;;
12429;SDS011;6279;42.192;24.326;2024-01-30T05:31:45;47.70;;;23.53;;
12429;SDS011;6279;42.192;24.326;2024-01-30T05:34:10;160.57;;;68.77;;
12429;SDS011;6279;42.192;24.326;2024-01-30T05:36:35;140.10;;;62.40;;
12429;SDS011;6279;42.192;24.326;2024-01-30T05:39:01;166.50;;;74.67;;
12429;SDS011;6279;42.192;24.326;2024-01-30T05:41:26;218.90;;;95.17;;
12429;SDS011;6279;42.192;24.326;2024-01-30T05:43:52;173.70;;;80.63;;
12429;SDS011;6279;42.192;24.326;2024-01-30T05:46:17;139.97;;;62.43;;
12429;SDS011;6279;42.192;24.326;2024-01-30T05:48:42;173.03;;;75.67;;
12429;SDS011;6279;42.192;24.326;2024-01-30T05:51:08;124.97;;;57.03;;
12429;SDS011;6279;42.192;24.326;2024-01-30T05:53:34;106.83;;;48.87;;
12429;SDS011;6279;42.192;24.326;2024-01-30T05:56:03;110.33;;;49.00;;
12429;SDS011;6279;42.192;24.326;2024-01-30T05:58:28;99.80;;;42.37;;
12429;SDS011;6279;42.192;24.326;2024-01-30T06:00:54;87.27;;;39.07;;
12429;SDS011;6279;42.192;24.326;2024-01-30T06:03:19;61.27;;;29.43;;
12429;SDS011;6279;42.192;24.326;2024-01-30T06:05:45;48.53;;;24.00;;
12429;SDS011;6279;42.192;24.326;2024-01-30T06:08:10;42.63;;;21.00;;
12429;SDS011;6279;42.192;24.326;2024-01-30T06:10:35;27.13;;;16.23;;
12429;SDS011;6279;42.192;24.326;2024-01-30T06:13:01;37.33;;;19.87;;
12429;SDS011;6279;42.192;24.326;2024-01-30T06:15:26;34.17;;;19.50;;
12429;SDS011;6279;42.192;24.326;2024-01-30T06:17:52;31.20;;;19.60;;
12429;SDS011;6279;42.192;24.326;2024-01-30T06:20:17;36.27;;;19.50;;
12429;SDS011;6279;42.192;24.326;2024-01-30T06:22:43;29.07;;;16.13;;
12429;SDS011;6279;42.192;24.326;2024-01-30T06:25:08;29.07;;;14.47;;
12429;SDS011;6279;42.192;24.326;2024-01-30T06:27:34;21.03;;;12.37;;
12429;SDS011;6279;42.192;24.326;2024-01-30T06:29:59;21.83;;;12.67;;
12429;SDS011;6279;42.192;24.326;2024-01-30T06:32:26;22.20;;;13.03;;
12429;SDS011;6279;42.192;24.326;2024-01-30T06:34:53;22.20;;;11.60;;
12429;SDS011;6279;42.192;24.326;2024-01-30T06:37:19;31.53;;;16.17;;
12429;SDS011;6279;42.192;24.326;2024-01-30T06:39:44;24.37;;;14.13;;
12429;SDS011;6279;42.192;24.326;2024-01-30T06:42:09;27.97;;;13.93;;
12429;SDS011;6279;42.192;24.326;2024-01-30T06:44:36;26.20;;;14.33;;
12429;SDS011;6279;42.192;24.326;2024-01-30T06:47:01;24.50;;;15.00;;
12429;SDS011;6279;42.192;24.326;2024-01-30T06:49:26;25.30;;;15.47;;
12429;SDS011;6279;42.192;24.326;2024-01-30T06:51:52;23.60;;;13.97;;
12429;SDS011;6279;42.192;24.326;2024-01-30T06:54:17;24.57;;;13.67;;
12429;SDS011;6279;42.192;24.326;2024-01-30T06:56:42;16.77;;;10.27;;
12429;SDS011;6279;42.192;24.326;2024-01-30T06:59:08;18.33;;;10.87;;
12429;SDS011;6279;42.192;24.326;2024-01-30T07:01:33;25.47;;;14.43;;
12429;SDS011;6279;42.192;24.326;2024-01-30T07:03:59;29.00;;;15.10;;
12429;SDS011;6279;42.192;24.326;2024-01-30T07:06:24;23.40;;;15.00;;
12429;SDS011;6279;42.192;24.326;2024-01-30T07:08:50;27.67;;;15.63;;
12429;SDS011;6279;42.192;24.326;2024-01-30T07:11:21;24.83;;;16.47;;
12429;SDS011;6279;42.192;24.326;2024-01-30T07:13:48;23.03;;;13.97;;
12429;SDS011;6279;42.192;24.326;2024-01-30T07:16:15;17.87;;;12.27;;
12429;SDS011;6279;42.192;24.326;2024-01-30T07:18:40;21.03;;;12.40;;
12429;SDS011;6279;42.192;24.326;2024-01-30T07:21:06;31.10;;;15.00;;
12429;SDS011;6279;42.192;24.326;2024-01-30T07:23:31;21.87;;;14.87;;
12429;SDS011;6279;42.192;24.326;2024-01-30T07:25:59;15.63;;;10.47;;
12429;SDS011;6279;42.192;24.326;2024-01-30T07:28:24;20.43;;;11.13;;
12429;SDS011;6279;42.192;24.326;2024-01-30T07:30:50;16.13;;;10.60;;
12429;SDS011;6279;42.192;24.326;2024-01-30T07:33:15;16.77;;;11.33;;
12429;SDS011;6279;42.192;24.326;2024-01-30T07:35:41;20.53;;;13.83;;
12429;SDS011;6279;42.192;24.326;2024-01-30T07:38:06;16.07;;;10.97;;
12429;SDS011;6279;42.192;24.326;2024-01-30T07:40:31;14.30;;;10.17;;
12429;SDS011;6279;42.192;24.326;2024-01-30T07:42:58;16.90;;;11.13;;
12429;SDS011;6279;42.192;24.326;2024-01-30T07:45:23;24.80;;;14.23;;
12429;SDS011;6279;42.192;24.326;2024-01-30T07:47:50;31.73;;;15.10;;
12429;SDS011;6279;42.192;24.326;2024-01-30T07:50:16;15.67;;;9.97;;
12429;SDS011;6279;42.192;24.326;2024-01-30T07:52:42;13.27;;;9.10;;
12429;SDS011;6279;42.192;24.326;2024-01-30T07:55:08;15.77;;;9.77;;
12429;SDS011;6279;42.192;24.326;2024-01-30T07:57:34;15.77;;;10.27;;
12429;SDS011;6279;42.192;24.326;2024-01-30T08:00:00;19.07;;;10.43;;
12429;SDS011;6279;42.192;24.326;2024-01-30T08:02:25;24.60;;;13.83;;
12429;SDS011;6279;42.192;24.326;2024-01-30T08:04:51;21.67;;;13.70;;
12429;SDS011;6279;42.192;24.326;2024-01-30T08:07:16;20.40;;;12.33;;
12429;SDS011;6279;42.192;24.326;2024-01-30T08:09:42;13.50;;;9.20;;
12429;SDS011;6279;42.192;24.326;2024-01-30T08:12:10;11.97;;;9.87;;
12429;SDS011;6279;42.192;24.326;2024-01-30T08:14:35;13.73;;;10.23;;
12429;SDS011;6279;42.192;24.326;2024-01-30T08:17:01;9.23;;;7.43;;
12429;SDS011;6279;42.192;24.326;2024-01-30T08:19:26;11.87;;;6.93;;
12429;SDS011;6279;42.192;24.326;2024-01-30T08:21:51;10.07;;;7.50;;
12429;SDS011;6279;42.192;24.326;2024-01-30T08:24:17;7.70;;;6.00;;
12429;SDS011;6279;42.192;24.326;2024-01-30T08:26:42;10.00;;;6.37;;
12429;SDS011;6279;42.192;24.326;2024-01-30T08:29:08;6.50;;;5.80;;
12429;SDS011;6279;42.192;24.326;2024-01-30T08:31:33;7.57;;;6.37;;
12429;SDS011;6279;42.192;24.326;2024-01-30T08:33:59;7.43;;;6.10;;
12429;SDS011;6279;42.192;24.326;2024-01-30T08:36:24;8.60;;;6.23;;
12429;SDS011;6279;42.192;24.326;2024-01-30T08:38:50;9.73;;;6.87;;
12429;SDS011;6279;42.192;24.326;2024-01-30T08:41:15;8.73;;;6.27;;
12429;SDS011;6279;42.192;24.326;2024-01-30T08:43:41;9.50;;;6.27;;
12429;SDS011;6279;42.192;24.326;2024-01-30T08:46:06;8.27;;;6.37;;
12429;SDS011;6279;42.192;24.326;2024-01-30T08:48:31;9.67;;;6.80;;
12429;SDS011;6279;42.192;24.326;2024-01-30T08:50:57;10.50;;;6.90;;
12429;SDS011;6279;42.192;24.326;2024-01-30T08:53:22;8.93;;;6.00;;
12429;SDS011;6279;42.192;24.326;2024-01-30T08:55:47;9.53;;;5.63;;
12429;SDS011;6279;42.192;24.326;2024-01-30T08:58:13;10.37;;;6.00;;
12429;SDS011;6279;42.192;24.326;2024-01-30T09:00:38;13.83;;;7.50;;
12429;SDS011;6279;42.192;24.326;2024-01-30T09:03:04;10.47;;;7.07;;
12429;SDS011;6279;42.192;24.326;2024-01-30T09:05:29;14.13;;;7.87;;
12429;SDS011;6279;42.192;24.326;2024-01-30T09:07:55;12.33;;;6.37;;
12429;SDS011;6279;42.192;24.326;2024-01-30T09:10:20;5.63;;;4.83;;
12429;SDS011;6279;42.192;24.326;2024-01-30T09:12:46;7.13;;;5.20;;
12429;SDS011;6279;42.192;24.326;2024-01-30T09:15:12;10.97;;;5.43;;
12429;SDS011;6279;42.192;24.326;2024-01-30T09:17:37;10.87;;;6.50;;
12429;SDS011;6279;42.192;24.326;2024-01-30T09:20:03;12.23;;;7.53;;
12429;SDS011;6279;42.192;24.326;2024-01-30T09:22:29;11.60;;;8.53;;
12429;SDS011;6279;42.192;24.326;2024-01-30T09:24:55;8.80;;;6.50;;
12429;SDS011;6279;42.192;24.326;2024-01-30T09:27:20;7.27;;;5.67;;
12429;SDS011;6279;42.192;24.326;2024-01-30T09:29:45;7.73;;;4.43;;
12429;SDS011;6279;42.192;24.326;2024-01-30T09:32:11;5.10;;;4.20;;
12429;SDS011;6279;42.192;24.326;2024-01-30T09:34:36;5.17;;;3.87;;
12429;SDS011;6279;42.192;24.326;2024-01-30T09:37:02;6.83;;;4.43;;
12429;SDS011;6279;42.192;24.326;2024-01-30T09:39:27;9.80;;;6.23;;
12429;SDS011;6279;42.192;24.326;2024-01-30T09:45:04;11.23;;;7.53;;
12429;SDS011;6279;42.192;24.326;2024-01-30T09:47:51;15.20;;;8.73;;
12429;SDS011;6279;42.192;24.326;2024-01-30T09:50:16;10.70;;;7.10;;
12429;SDS011;6279;42.192;24.326;2024-01-30T09:52:42;10.30;;;8.13;;
12429;SDS011;6279;42.192;24.326;2024-01-30T09:55:09;5.20;;;4.03;;
12429;SDS011;6279;42.192;24.326;2024-01-30T09:57:35;8.83;;;5.50;;
12429;SDS011;6279;42.192;24.326;2024-01-30T10:00:01;6.97;;;4.20;;
12429;SDS011;6279;42.192;24.326;2024-01-30T10:02:34;3.33;;;2.90;;
12429;SDS011;6279;42.192;24.326;2024-01-30T10:05:00;2.63;;;2.27;;
12429;SDS011;6279;42.192;24.326;2024-01-30T10:07:25;3.23;;;2.33;;
12429;SDS011;6279;42.192;24.326;2024-01-30T10:09:52;2.47;;;1.80;;
12429;SDS011;6279;42.192;24.326;2024-01-30T10:12:18;4.03;;;2.40;;
12429;SDS011;6279;42.192;24.326;2024-01-30T10:14:44;3.67;;;2.73;;
12429;SDS011;6279;42.192;24.326;2024-01-30T10:17:09;3.70;;;3.00;;
12429;SDS011;6279;42.192;24.326;2024-01-30T10:19:39;3.93;;;3.27;;
12429;SDS011;6279;42.192;24.326;2024-01-30T10:22:05;6.13;;;3.77;;
12429;SDS011;6279;42.192;24.326;2024-01-30T10:24:31;5.27;;;2.93;;
12429;SDS011;6279;42.192;24.326;2024-01-30T10:26:56;8.17;;;5.47;;
12429;SDS011;6279;42.192;24.326;2024-01-30T10:29:22;3.53;;;3.23;;
12429;SDS011;6279;42.192;24.326;2024-01-30T10:32:03;5.47;;;3.30;;
12429;SDS011;6279;42.192;24.326;2024-01-30T10:34:29;7.40;;;3.63;;
12429;SDS011;6279;42.192;24.326;2024-01-30T10:39:43;4.70;;;3.40;;
12429;SDS011;6279;42.192;24.326;2024-01-30T10:42:17;4.13;;;3.30;;
12429;SDS011;6279;42.192;24.326;2024-01-30T10:47:32;4.67;;;3.87;;
12429;SDS011;6279;42.192;24.326;2024-01-30T10:49:59;11.00;;;3.70;;
12429;SDS011;6279;42.192;24.326;2024-01-30T10:52:25;9.97;;;3.30;;
12429;SDS011;6279;42.192;24.326;2024-01-30T10:54:53;5.93;;;3.80;;
12429;SDS011;6279;42.192;24.326;2024-01-30T10:57:19;6.10;;;3.90;;
12429;SDS011;6279;42.192;24.326;2024-01-30T10:59:47;5.60;;;4.23;;
12429;SDS011;6279;42.192;24.326;2024-01-30T11:02:14;6.13;;;3.30;;
12429;SDS011;6279;42.192;24.326;2024-01-30T11:04:41;6.20;;;4.00;;
12429;SDS011;6279;42.192;24.326;2024-01-30T11:10:09;4.63;;;3.57;;
12429;SDS011;6279;42.192;24.326;2024-01-30T11:12:38;4.93;;;3.60;;
12429;SDS011;6279;42.192;24.326;2024-01-30T11:20:15;5.60;;;4.07;;
12429;SDS011;6279;42.192;24.326;2024-01-30T11:22:42;6.67;;;4.33;;
12429;SDS011;6279;42.192;24.326;2024-01-30T11:25:15;9.17;;;4.93;;
12429;SDS011;6279;42.192;24.326;2024-01-30T11:27:45;6.87;;;4.17;;
12429;SDS011;6279;42.192;24.326;2024-01-30T11:30:20;5.77;;;4.60;;
12429;SDS011;6279;42.192;24.326;2024-01-30T11:32:57;5.17;;;3.93;;
12429;SDS011;6279;42.192;24.326;2024-01-30T11:35:24;3.73;;;2.53;;
12429;SDS011;6279;42.192;24.326;2024-01-30T11:37:49;7.67;;;4.37;;
12429;SDS011;6279;42.192;24.326;2024-01-30T11:40:15;7.47;;;4.60;;
12429;SDS011;6279;42.192;24.326;2024-01-30T11:42:41;6.23;;;4.00;;
12429;SDS011;6279;42.192;24.326;2024-01-30T11:45:08;10.13;;;3.80;;
12429;SDS011;6279;42.192;24.326;2024-01-30T11:47:35;4.87;;;3.30;;
12429;SDS011;6279;42.192;24.326;2024-01-30T11:50:02;5.63;;;3.80;;
12429;SDS011;6279;42.192;24.326;2024-01-30T11:52:28;7.63;;;4.13;;
12429;SDS011;6279;42.192;24.326;2024-01-30T11:54:54;4.87;;;3.50;;
12429;SDS011;6279;42.192;24.326;2024-01-30T11:57:19;3.97;;;3.27;;
12429;SDS011;6279;42.192;24.326;2024-01-30T11:59:45;5.67;;;3.33;;
12429;SDS011;6279;42.192;24.326;2024-01-30T12:02:15;3.87;;;2.80;;
12429;SDS011;6279;42.192;24.326;2024-01-30T12:04:41;5.63;;;2.83;;
12429;SDS011;6279;42.192;24.326;2024-01-30T12:07:07;4.10;;;2.80;;
12429;SDS011;6279;42.192;24.326;2024-01-30T12:09:33;4.63;;;3.00;;
12429;SDS011;6279;42.192;24.326;2024-01-30T12:11:58;5.10;;;3.17;;
12429;SDS011;6279;42.192;24.326;2024-01-30T12:14:24;3.87;;;2.57;;
12429;SDS011;6279;42.192;24.326;2024-01-30T12:16:50;4.57;;;3.10;;
12429;SDS011;6279;42.192;24.326;2024-01-30T12:19:25;5.17;;;2.77;;
12429;SDS011;6279;42.192;24.326;2024-01-30T12:21:56;3.53;;;2.73;;
12429;SDS011;6279;42.192;24.326;2024-01-30T12:24:24;5.93;;;3.33;;
12429;SDS011;6279;42.192;24.326;2024-01-30T12:26:50;3.77;;;2.43;;
12429;SDS011;6279;42.192;24.326;2024-01-30T12:29:16;4.50;;;3.00;;
12429;SDS011;6279;42.192;24.326;2024-01-30T12:31:42;3.47;;;2.70;;
12429;SDS011;6279;42.192;24.326;2024-01-30T12:34:09;4.03;;;2.30;;
12429;SDS011;6279;42.192;24.326;2024-01-30T12:36:34;4.00;;;2.40;;
12429;SDS011;6279;42.192;24.326;2024-01-30T12:39:00;5.07;;;2.60;;
12429;SDS011;6279;42.192;24.326;2024-01-30T12:41:26;3.20;;;2.30;;
12429;SDS011;6279;42.192;24.326;2024-01-30T12:43:54;4.87;;;2.93;;
12429;SDS011;6279;42.192;24.326;2024-01-30T12:46:24;3.90;;;2.83;;
12429;SDS011;6279;42.192;24.326;2024-01-30T12:48:50;3.67;;;2.60;;
12429;SDS011;6279;42.192;24.326;2024-01-30T12:51:16;2.20;;;1.80;;
12429;SDS011;6279;42.192;24.326;2024-01-30T12:53:41;3.57;;;2.47;;
12429;SDS011;6279;42.192;24.326;2024-01-30T12:56:07;4.27;;;2.80;;
12429;SDS011;6279;42.192;24.326;2024-01-30T12:58:32;3.13;;;2.37;;
12429;SDS011;6279;42.192;24.326;2024-01-30T13:00:57;3.77;;;2.70;;
12429;SDS011;6279;42.192;24.326;2024-01-30T13:03:23;5.20;;;3.20;;
12429;SDS011;6279;42.192;24.326;2024-01-30T13:05:48;3.40;;;2.23;;
12429;SDS011;6279;42.192;24.326;2024-01-30T13:08:14;2.90;;;1.97;;
12429;SDS011;6279;42.192;24.326;2024-01-30T13:10:39;3.13;;;2.20;;
12429;SDS011;6279;42.192;24.326;2024-01-30T13:13:04;2.80;;;2.27;;
12429;SDS011;6279;42.192;24.326;2024-01-30T13:15:30;3.57;;;2.73;;
12429;SDS011;6279;42.192;24.326;2024-01-30T13:17:55;3.60;;;2.53;;
12429;SDS011;6279;42.192;24.326;2024-01-30T13:20:21;5.87;;;2.50;;
12429;SDS011;6279;42.192;24.326;2024-01-30T13:22:49;3.83;;;2.40;;
12429;SDS011;6279;42.192;24.326;2024-01-30T13:25:15;4.07;;;2.53;;
12429;SDS011;6279;42.192;24.326;2024-01-30T13:27:41;4.00;;;2.60;;
12429;SDS011;6279;42.192;24.326;2024-01-30T13:30:09;3.77;;;2.40;;
12429;SDS011;6279;42.192;24.326;2024-01-30T13:32:35;3.00;;;2.30;;
12429;SDS011;6279;42.192;24.326;2024-01-30T13:35:00;3.10;;;2.10;;
12429;SDS011;6279;42.192;24.326;2024-01-30T13:37:26;4.00;;;1.80;;
12429;SDS011;6279;42.192;24.326;2024-01-30T13:39:51;3.13;;;2.07;;
12429;SDS011;6279;42.192;24.326;2024-01-30T13:42:17;6.23;;;2.33;;
12429;SDS011;6279;42.192;24.326;2024-01-30T13:44:42;2.93;;;2.43;;
12429;SDS011;6279;42.192;24.326;2024-01-30T13:47:10;2.90;;;2.17;;
12429;SDS011;6279;42.192;24.326;2024-01-30T13:49:36;3.47;;;2.10;;
12429;SDS011;6279;42.192;24.326;2024-01-30T13:52:01;3.43;;;2.20;;
12429;SDS011;6279;42.192;24.326;2024-01-30T13:54:30;3.27;;;2.10;;
12429;SDS011;6279;42.192;24.326;2024-01-30T13:56:55;4.80;;;2.60;;
12429;SDS011;6279;42.192;24.326;2024-01-30T13:59:21;4.40;;;2.43;;
12429;SDS011;6279;42.192;24.326;2024-01-30T14:01:49;5.03;;;3.10;;
12429;SDS011;6279;42.192;24.326;2024-01-30T14:04:15;5.60;;;2.67;;
12429;SDS011;6279;42.192;24.326;2024-01-30T14:06:41;4.40;;;2.03;;
12429;SDS011;6279;42.192;24.326;2024-01-30T14:09:07;2.40;;;1.60;;
12429;SDS011;6279;42.192;24.326;2024-01-30T14:11:32;2.97;;;2.20;;
12429;SDS011;6279;42.192;24.326;2024-01-30T14:13:58;5.63;;;2.70;;
12429;SDS011;6279;42.192;24.326;2024-01-30T14:16:24;4.10;;;3.03;;
12429;SDS011;6279;42.192;24.326;2024-01-30T14:18:49;4.13;;;2.60;;
12429;SDS011;6279;42.192;24.326;2024-01-30T14:21:15;8.60;;;5.23;;
12429;SDS011;6279;42.192;24.326;2024-01-30T14:23:40;5.73;;;2.93;;
12429;SDS011;6279;42.192;24.326;2024-01-30T14:26:06;3.67;;;2.57;;
12429;SDS011;6279;42.192;24.326;2024-01-30T14:28:31;4.17;;;2.90;;
12429;SDS011;6279;42.192;24.326;2024-01-30T14:30:57;4.90;;;2.90;;
12429;SDS011;6279;42.192;24.326;2024-01-30T14:33:22;5.17;;;3.30;;
12429;SDS011;6279;42.192;24.326;2024-01-30T14:35:48;5.20;;;2.23;;
12429;SDS011;6279;42.192;24.326;2024-01-30T14:38:13;5.10;;;2.80;;
12429;SDS011;6279;42.192;24.326;2024-01-30T14:40:39;5.70;;;3.17;;
12429;SDS011;6279;42.192;24.326;2024-01-30T14:43:04;4.17;;;3.07;;
12429;SDS011;6279;42.192;24.326;2024-01-30T14:45:30;3.10;;;2.50;;
12429;SDS011;6279;42.192;24.326;2024-01-30T14:47:57;4.97;;;3.10;;